AirNav   Bose Proflight aviation headeet
 
 463 users online  

0MU2 Christian Hospital Northeast Heliport
Florissant, Missouri, USA

GOING TO FLORISSANT?


FAA INFORMATION EFFECTIVE 03 JANUARY 2019

Location

FAA Identifier: 0MU2
Lat/Long: 38-46-36.1100N / 090-14-21.8400W
38-46.601833N / 090-14.364000W
38.7766972 / -90.2394000
(estimated)
Elevation: 554 ft. / 169 m (estimated)
Variation: 01E (1990)
From city: 3 miles E of FLORISSANT, MO
Time zone: UTC -6 (UTC -5 during Daylight Saving Time)
Zip code: 63136

Heliport Operations

Heliport use: Private use, MEDICAL USE.
Activation date: 08/1994
Control tower: no
ARTCC: KANSAS CITY CENTER
FSS: SAINT LOUIS FLIGHT SERVICE STATION
Attendance: UNATNDD
Segmented circle: no

Heliport Communications

WX ASOS at STL (6 nm W): PHONE 314-890-4790
WX AWOS-3 at ALN (11 nm NE): 128.0 (618-259-7231)
WX ASOS at SET (13 nm NW): 118.075 (636-250-4590)
WX ASOS at CPS (13 nm S): PHONE 618-332-0001

Nearby radio navigation aids

VOR radial/distance  VOR name  Freq  Var
CSXr076/5.9CARDINAL VOR/DME116.4500E
STLr113/12.4ST LOUIS VORTAC117.4001E
TOYr275/15.2TROY VORTAC116.0004E
FTZr077/34.6FORISTELL VORTAC110.8005E

 
NDB name  Hdg/Dist  Freq  Var  ID
ZUMAY111/2.040401WST ... -
CIVIC MEMORIAL232/11.026301WCVM -.-. ...- --
OBLIO098/11.133801WLM .-.. --
ALPOS253/14.921801WAL .- .-..

Heliport Services

Runway Information

Helipad H2

Dimensions: 55 x 55 ft. / 17 x 17 m
Surface: asphalt
Latitude: 38-46.615333N
Longitude: 090-14.490833W
Elevation: 554.0 ft.
Traffic pattern: leftleft

Helipad H1

Dimensions: 20 x 20 ft. / 6 x 6 m
Surface: concrete
Operational restrictions: ROOFTOP.
Latitude: 38-46.601833N
Longitude: 090-14.364000W
Elevation: 554.0 ft.
Traffic pattern: leftleft

Heliport Ownership and Management from official FAA records

Ownership: Privately-owned
Owner: CHRISTIAN HOSPITAL NORTHEAST
11133 DUNN RD
ST LOUIS, MO 63136
Manager: RON MCMULLEN
11133 DUNN RD
ST LOUIS, MO 63136

Additional Remarks

A52-H1 100 FT BLDG 300 FT SOUTHEAST; 30 FT BLDG 400 FT NORTHEAST & 30 FT BLDG 225 FT EAST OF HELIPAD.
OWNER DESIRES ARPT NOT BE CHARTED.

Instrument Procedures

There are no published instrument procedures at 0MU2.

Some nearby airports with instrument procedures:

KSTL - St Louis Lambert International Airport (6 nm W)
KALN - St Louis Regional Airport (11 nm NE)
KSET - St Charles County Smartt Airport (13 nm NW)
1H0 - Creve Coeur Airport (13 nm W)
KCPS - St Louis Downtown Airport (13 nm S)
 
Loc | Ops | Rwys | IFR | FBO | Links
Com | Nav | Svcs | Stats | Notes

Kansas City Aviation Department
 
Area around 0MU2 (Christian Hospital Northeast Heliport)
 
Road maps at: MapQuest Bing Google
 
Aerial photo
No photo
 
Sectional chart

 
Airport distance calculator
Flying to Christian Hospital Northeast Heliport? Find the distance to fly.

From to 0MU2

Sunrise and sunset
Times for 16-Jan-2019
 Local
(UTC-6)
 Zulu
(UTC)
Morning civil twilight06:4912:49
Sunrise07:1813:18
Sunset17:0323:03
Evening civil twilight17:3223:32

Current date and time
Zulu (UTC)  16-Jan-2019 06:56:08
Local (UTC-6)  16-Jan-2019 00:56:08
 
METAR
KSTL 
6nm W 
160551Z 21007KT 9SM OVC007 02/00 A3018 RMK AO2 SLP229 4/005 T00170000 10017 20011 400171011 58003
KALN 
12nm NE 
160635Z AUTO 22006KT 5SM BR OVC007 01/01 A3017 RMK AO2 T00100010
KSET 
13nm NW 
160554Z AUTO 22006KT 6SM BR OVC008 01/00 A3018 RMK AO2 SLP221 T00110000 10017 20011 400171017 58003
KCPS 
13nm S 
160642Z AUTO 00000KT 10SM SCT009 02/M01 A3018 RMK AO2 T00171006
TAF
KSTL 
6nm W 
160520Z 1606/1712 22008KT P6SM OVC008 TEMPO 1606/1607 SCT008 BKN250 FM160700 24005KT 4SM -DZ BR BKN007 FM161000 27005KT 2SM -FZDZ BR OVC003 FM161400 30005KT 2SM -DZ BR OVC004 FM161600 33005KT P6SM OVC005 FM162000 05004KT P6SM OVC006 FM170000 08006KT P6SM OVC007 FM170700 11005KT 5SM -RA OVC007
KCPS 
13nm S 
160520Z 1606/1706 22006KT P6SM OVC009 TEMPO 1606/1608 SCT009 BKN250 FM160800 24005KT 4SM -DZ BR BKN007 FM161000 27005KT 2SM -FZDZ BR OVC003 FM161400 30005KT 2SM -DZ BR OVC004 FM161600 33005KT P6SM OVC005 FM162000 05004KT P6SM OVC006 FM170000 08006KT P6SM OVC007
NOTAMs
Click for the latest NOTAMs
NOTAMs are issued by the DoD/FAA and will open in a separate window not controlled by AirNav.

 

 
 

Would you like to see your business listed on this page?

 If your business provides an interesting product or service to pilots, flight crews, aircraft, or users of the Christian Hospital Northeast Heliport, you should consider listing it here.  To start the listing process, click on the button below
 
Add a business
 

Other Pages about Christian Hospital Northeast Heliport

Update a link
 
Copyright © AirNav, LLC. All rights reserved. Privacy Policy  Contact